Sioux County Regional Airport
Tuesday 12:15 PM
Weather Partly Cloudy
VFR
Temperature 79°
Dew Point 75°
Feels Like 79°
Relative Humidity 89
%
Visibility 10
mi
Pressure 1002.4
mb
Wind Direction S
Wind Speed 26
mph
Last Hour Precip 0.00
"
KSXK 181715Z AUTO 18023G30KT 10SM SCT048 BKN055 26/24 A2960 RMK AO2

Recent Observations

Time Present Weather Temp DP Feels RH% Vsby Pressure Ceiling Direction Speed Gust 1h Precip
12:15PM
VFR
79° 75° 79° 89
%
10
mi
1002.4
mb
5500
ft
S 26
mph
35
mph
0.00"
KSXK 181715Z AUTO 18023G30KT 10SM SCT048 BKN055 26/24 A2960 RMK AO2
11:55AM
VFR
81° 75° 86° 84
%
10
mi
1002.0
mb
4700
ft
S 29
mph
38
mph
0.00"
KSXK 181655Z AUTO 19025G33KT 10SM FEW023 SCT038 BKN047 27/24 A2959 RMK AO2
11:35AM
VFR
81° 75° 86° 84
%
10
mi
1002.0
mb
3800
ft
S 28
mph
38
mph
0.00"
KSXK 181635Z AUTO 19024G33KT 10SM SCT023 BKN038 BKN045 27/24 A2959 RMK AO2
11:15AM
VFR
81° 75° 86° 84
%
10
mi
1001.7
mb
3700
ft
S 30
mph
41
mph
0.00"
KSXK 181615Z AUTO 18026G36KT 10SM FEW022 BKN037 27/24 A2958 RMK AO2
10:55AM
VFR
81° 75° 86° 84
%
10
mi
1001.7
mb
3000
ft
S 32
mph
40
mph
0.00"
KSXK 181555Z AUTO 18028G35KT 10SM FEW023 BKN030 OVC037 27/24 A2958 RMK AO2
10:35AM
MVFR
79° 73° 79° 84
%
10
mi
1001.7
mb
2200
ft
S 26
mph
36
mph
0.00"
KSXK 181535Z AUTO 18023G31KT 10SM BKN022 OVC028 26/23 A2958 RMK AO2
10:15AM
MVFR
79° 73° 79° 84
%
10
mi
1001.7
mb
2800
ft
S 24
mph
37
mph
0.00"
KSXK 181515Z AUTO 18021G32KT 10SM SCT022 OVC028 26/23 A2958 RMK AO2
9:55AM
MVFR
79° 73° 79° 84
%
10
mi
1001.7
mb
2700
ft
S 26
mph
36
mph
0.00"
KSXK 181455Z AUTO 18023G31KT 10SM SCT022 BKN027 OVC034 26/23 A2958 RMK AO2
9:35AM
VFR
79° 73° 79° 84
%
10
mi
1001.7
mb
3100
ft
S 25
mph
35
mph
0.00"
KSXK 181435Z AUTO 19022G30KT 10SM FEW022 SCT027 BKN031 26/23 A2958 RMK AO2
9:15AM
VFR
79° 73° 79° 84
%
10
mi
1001.7
mb
3300
ft
S 24
mph
31
mph
0.00"
KSXK 181415Z AUTO 17021G27KT 10SM BKN033 BKN040 OVC050 26/23 A2958 RMK AO2
8:55AM
VFR
77° 73° 77° 89
%
10
mi
1001.4
mb
3000
ft
S 26
mph
37
mph
0.00"
KSXK 181355Z AUTO 18023G32KT 10SM BKN030 OVC035 25/23 A2957 RMK AO2
8:35AM
VFR
77° 73° 77° 89
%
10
mi
1001.4
mb
3000
ft
S 25
mph
38
mph
0.00"
KSXK 181335Z AUTO 18022G33KT 10SM FEW021 BKN030 OVC040 25/23 A2957 RMK AO2
8:15AM
MVFR
77° 73° 77° 89
%
10
mi
1001.4
mb
2000
ft
S 25
mph
36
mph
0.00"
KSXK 181315Z AUTO 19022G31KT 10SM BKN020 BKN026 OVC037 25/23 A2957 RMK AO2
7:55AM
MVFR
77° 72° 77° 83
%
10
mi
1001.4
mb
2000
ft
S 24
mph
35
mph
0.00"
KSXK 181255Z AUTO 18021G30KT 10SM BKN020 OVC025 25/22 A2957 RMK AO2
7:35AM
MVFR
77° 72° 77° 83
%
10
mi
1000.7
mb
2100
ft
S 25
mph
37
mph
0.00"
KSXK 181235Z AUTO 17022G32KT 10SM BKN021 25/22 A2955 RMK AO2
7:15AM
VFR
75° 72° 75° 89
%
10
mi
1000.3
mb
None S 25
mph
36
mph
0.00"
KSXK 181215Z AUTO 18022G31KT 10SM FEW021 24/22 A2954 RMK AO2
6:55AM
VFR
75° 72° 75° 89
%
10
mi
1000.3
mb
None S 23
mph
35
mph
0.00"
KSXK 181155Z AUTO 17020G30KT 10SM FEW022 24/22 A2954 RMK AO2
6:35AM
VFR
75° 72° 75° 89
%
10
mi
1000.3
mb
None S 26
mph
33
mph
0.00"
KSXK 181135Z AUTO 17023G29KT 10SM CLR 24/22 A2954 RMK AO2
6:15AM
VFR
73° 72° 73° 94
%
10
mi
1000.3
mb
None S 24
mph
30
mph
0.00"
KSXK 181115Z AUTO 17021G26KT 10SM CLR 23/22 A2954 RMK AO2
5:55AM
VFR
73° 72° 73° 94
%
10
mi
1000.3
mb
None S 24
mph
32
mph
0.00"
KSXK 181055Z AUTO 17021G28KT 10SM CLR 23/22 A2954 RMK AO2
Click here to show this page without METARs/TAFs included